Terminal Aerodrome Forecast
Issued by NWS

Home | Current Version | Previous Version | Graphics & Text | Print | Product List | Glossary On
Versions: 1 2 3 4 5 6 7 8 9 10 11 12
000
FTUS43 KLSX 200533
TAFSUS
TAF
KSUS 200533Z 2006/2106 VRB02KT P6SM FEW250
     FM201000 21006KT P6SM FEW250 WS010/21035KT
     FM201500 21009KT P6SM FEW250
     FM201700 21013G19KT P6SM FEW250
     FM210000 19008KT P6SM FEW250=

USA.gov is the U.S. government's official web portal to all federal, state and local government web resources and services.